^^
Your Local Weather - Clay, NY Station Historical Data
Daily Summary for May 26, 2017 Units:  English    Metric   Both
« Previous Day
Next Day »
Daily Weekly Monthly Yearly Custom
  High: Low: Average:
Temperature: 61.0 °F 54.2 °F 57.1 °F
Dew Point: 56.8 °F 51.2 °F 53.3 °F
Humidity: 92% 78% 87%
Wind Speed: 4.0mph 0.0mph 1.2mph
Wind Gust: 7.0mph - -
Wind- - SW
Pressure: 29.81 in 29.48 in -
Precipitation: 0.09 in    
Historical Graphs
 
 
Tabular Data for May 26, 2017
Time Temperature Dew Point Pressure Wind Wind Speed Wind Gust Humidity Rainfall Rate (Hourly) solar
00:04 56.1 °F 52.3 °F 29.50 in ENE 2.0 mph 3.0 mph 87% 0.00 in 0 W/m2
00:10 56.1 °F 52.3 °F 29.50 in NE 2.0 mph 3.0 mph 87% 0.00 in 0 W/m2
00:16 56.1 °F 52.6 °F 29.50 in East 2.0 mph 4.0 mph 88% 0.00 in 0 W/m2
00:22 56.0 °F 52.5 °F 29.51 in ENE 2.0 mph 5.0 mph 88% 0.00 in 0 W/m2
00:28 56.1 °F 52.6 °F 29.51 in NE 2.0 mph 5.0 mph 88% 0.00 in 0 W/m2
00:34 56.0 °F 52.5 °F 29.50 in NE 1.0 mph 2.0 mph 88% 0.00 in 0 W/m2
00:40 56.0 °F 52.5 °F 29.50 in Calm   1.0 mph 88% 0.00 in 0 W/m2
00:46 56.0 °F 52.5 °F 29.50 in ENE 1.0 mph 1.0 mph 88% 0.00 in 0 W/m2
00:52 55.9 °F 52.4 °F 29.50 in ENE 1.0 mph 3.0 mph 88% 0.00 in 0 W/m2
00:58 55.9 °F 52.4 °F 29.50 in NE 2.0 mph 3.0 mph 88% 0.00 in 0 W/m2
01:04 55.9 °F 52.4 °F 29.50 in NE 1.0 mph 1.0 mph 88% 0.00 in 0 W/m2
01:10 55.9 °F 52.4 °F 29.49 in NNE 1.0 mph 2.0 mph 88% 0.00 in 0 W/m2
01:16 55.7 °F 52.2 °F 29.49 in NE 1.0 mph 2.0 mph 88% 0.00 in 0 W/m2
01:22 55.6 °F 52.1 °F 29.49 in NE 1.0 mph 2.0 mph 88% 0.00 in 0 W/m2
01:28 55.4 °F 51.9 °F 29.49 in NE 1.0 mph 2.0 mph 88% 0.00 in 0 W/m2
01:34 55.2 °F 51.7 °F 29.49 in ENE 1.0 mph 3.0 mph 88% 0.00 in 0 W/m2
01:40 55.1 °F 51.9 °F 29.49 in ENE 1.0 mph 1.0 mph 89% 0.00 in 0 W/m2
01:46 55.1 °F 51.9 °F 29.50 in ENE 1.0 mph 1.0 mph 89% 0.00 in 0 W/m2
01:52 55.2 °F 52.0 °F 29.49 in East 2.0 mph 4.0 mph 89% 0.00 in 0 W/m2
01:58 55.3 °F 52.1 °F 29.49 in East 2.0 mph 5.0 mph 89% 0.00 in 0 W/m2
02:04 55.3 °F 51.8 °F 29.50 in NE 3.0 mph 3.0 mph 88% 0.00 in 0 W/m2
02:10 55.4 °F 51.9 °F 29.50 in ENE 2.0 mph 4.0 mph 88% 0.00 in 0 W/m2
02:16 55.4 °F 51.9 °F 29.50 in NE 2.0 mph 4.0 mph 88% 0.00 in 0 W/m2
02:22 55.5 °F 52.0 °F 29.50 in ENE 2.0 mph 2.0 mph 88% 0.00 in 0 W/m2
02:28 55.5 °F 52.0 °F 29.50 in ENE 3.0 mph 4.0 mph 88% 0.00 in 0 W/m2
02:34 55.5 °F 51.7 °F 29.50 in ENE 2.0 mph 3.0 mph 87% 0.00 in 0 W/m2
02:40 55.5 °F 51.7 °F 29.50 in East 1.0 mph 2.0 mph 87% 0.00 in 0 W/m2
02:48 55.5 °F 51.7 °F 29.49 in ENE 2.0 mph 3.0 mph 87% 0.00 in 0 W/m2
02:54 55.4 °F 51.6 °F 29.49 in ENE 2.0 mph 2.0 mph 87% 0.00 in 0 W/m2
03:00 55.4 °F 51.6 °F 29.50 in ENE 1.0 mph 1.0 mph 87% 0.00 in 0 W/m2
03:06 55.3 °F 51.5 °F 29.49 in Calm   1.0 mph 87% 0.00 in 0 W/m2
03:12 55.2 °F 51.4 °F 29.49 in Calm   1.0 mph 87% 0.00 in 0 W/m2
03:18 55.0 °F 51.5 °F 29.49 in Calm   1.0 mph 88% 0.00 in 0 W/m2
03:24 54.9 °F 51.4 °F 29.49 in Calm     88% 0.00 in 0 W/m2
03:30 54.8 °F 51.3 °F 29.49 in Calm     88% 0.00 in 0 W/m2
03:42 54.7 °F 51.2 °F 29.49 in Calm     88% 0.00 in 0 W/m2
03:48 54.7 °F 51.5 °F 29.48 in Calm     89% 0.00 in 0 W/m2
03:54 54.7 °F 51.5 °F 29.48 in Calm     89% 0.00 in 0 W/m2
04:00 54.7 °F 51.5 °F 29.49 in Calm     89% 0.00 in 0 W/m2
04:06 54.7 °F 51.5 °F 29.49 in Calm     89% 0.00 in 0 W/m2
04:12 54.6 °F 51.4 °F 29.49 in Calm     89% 0.00 in 0 W/m2
04:18 54.7 °F 51.5 °F 29.49 in Calm   1.0 mph 89% 0.00 in 0 W/m2
04:24 54.7 °F 51.5 °F 29.49 in Calm     89% 0.00 in 0 W/m2
04:30 54.7 °F 51.5 °F 29.49 in ENE 1.0 mph 1.0 mph 89% 0.00 in 0 W/m2
04:36 54.8 °F 51.6 °F 29.49 in ENE 1.0 mph 2.0 mph 89% 0.00 in 0 W/m2
04:42 54.8 °F 51.3 °F 29.49 in ENE 1.0 mph 1.0 mph 88% 0.00 in 0 W/m2
04:48 54.8 °F 51.3 °F 29.49 in Calm   1.0 mph 88% 0.00 in 0 W/m2
04:54 54.8 °F 51.3 °F 29.50 in Calm   1.0 mph 88% 0.00 in 0 W/m2
05:00 54.9 °F 51.4 °F 29.50 in Calm   2.0 mph 88% 0.00 in 0 W/m2
05:06 55.0 °F 51.5 °F 29.50 in Calm   2.0 mph 88% 0.00 in 0 W/m2
05:12 54.9 °F 51.4 °F 29.50 in Calm     88% 0.00 in 0 W/m2
05:18 54.8 °F 51.3 °F 29.50 in Calm     88% 0.00 in 0 W/m2
05:24 54.8 °F 51.3 °F 29.51 in Calm     88% 0.00 in 0 W/m2
05:30 54.7 °F 51.5 °F 29.51 in Calm     89% 0.13 in 0 W/m2
05:36 54.6 °F 51.4 °F 29.51 in Calm     89% 0.06 in 0 W/m2
05:42 54.5 °F 51.3 °F 29.52 in Calm     89% 0.06 in 0 W/m2
05:48 54.4 °F 51.5 °F 29.52 in Calm     90% 0.04 in 0 W/m2
05:54 54.3 °F 51.4 °F 29.52 in Calm     90% 0.00 in 5 W/m2
06:00 54.2 °F 51.3 °F 29.52 in Calm     90% 0.00 in 7 W/m2
06:06 54.2 °F 51.3 °F 29.52 in Calm     90% 0.00 in 7 W/m2
12:02 58.2 °F 54.7 °F 29.62 in NW 2.0 mph 2.0 mph 88% 0.00 in 274 W/m2
12:34 60.4 °F 56.8 °F 29.62 in NW 3.0 mph 3.0 mph 88% 0.00 in 810 W/m2
12:40 60.6 °F 56.4 °F 29.62 in WNW 3.0 mph 3.0 mph 86% 0.00 in 624 W/m2
12:52 60.2 °F 55.3 °F 29.63 in NW 3.0 mph 3.0 mph 84% 0.00 in 223 W/m2
12:58 59.8 °F 54.6 °F 29.63 in NW 3.0 mph 5.0 mph 83% 0.00 in 403 W/m2
13:10 60.4 °F 55.2 °F 29.63 in NW 3.0 mph 3.0 mph 83% 0.00 in 751 W/m2
13:16 60.4 °F 54.5 °F 29.63 in NW 3.0 mph 5.0 mph 81% 0.00 in 359 W/m2
13:22 59.7 °F 53.9 °F 29.63 in NW 4.0 mph 4.0 mph 81% 0.00 in 376 W/m2
13:28 59.8 °F 54.6 °F 29.63 in NNW 2.0 mph 4.0 mph 83% 0.00 in 341 W/m2
13:34 59.8 °F 54.3 °F 29.64 in WNW 2.0 mph 7.0 mph 82% 0.00 in 213 W/m2
13:40 59.8 °F 54.6 °F 29.64 in NW 3.0 mph 3.0 mph 83% 0.00 in 327 W/m2
13:46 59.3 °F 53.8 °F 29.64 in NW 2.0 mph 4.0 mph 82% 0.00 in 223 W/m2
13:52 59.2 °F 54.4 °F 29.64 in NW 2.0 mph 2.0 mph 84% 0.00 in 364 W/m2
13:58 60.5 °F 55.0 °F 29.64 in NW 2.0 mph 2.0 mph 82% 0.00 in 406 W/m2
14:04 60.7 °F 54.8 °F 29.64 in NW 2.0 mph 7.0 mph 81% 0.00 in 464 W/m2
14:10 61.0 °F 55.5 °F 29.64 in NW 3.0 mph 3.0 mph 82% 0.00 in 555 W/m2
14:16 60.7 °F 53.8 °F 29.65 in WNW 3.0 mph 4.0 mph 78% 0.00 in 320 W/m2
14:22 60.1 °F 53.6 °F 29.65 in WNW 3.0 mph 3.0 mph 79% 0.00 in 260 W/m2
14:28 60.0 °F 54.2 °F 29.66 in North 2.0 mph 3.0 mph 81% 0.00 in 318 W/m2
14:34 60.0 °F 53.8 °F 29.66 in NW 3.0 mph 3.0 mph 80% 0.00 in 214 W/m2
14:40 59.8 °F 53.3 °F 29.66 in NW 3.0 mph 3.0 mph 79% 0.00 in 232 W/m2
14:46 59.8 °F 54.0 °F 29.66 in West 3.0 mph 4.0 mph 81% 0.00 in 292 W/m2
14:52 60.0 °F 53.8 °F 29.67 in NW 3.0 mph 3.0 mph 80% 0.00 in 443 W/m2
14:58 60.0 °F 53.8 °F 29.67 in NNW 3.0 mph 3.0 mph 80% 0.00 in 251 W/m2
15:04 59.8 °F 54.0 °F 29.67 in NW 2.0 mph 3.0 mph 81% 0.00 in 302 W/m2
15:10 59.8 °F 54.0 °F 29.67 in NW 3.0 mph 3.0 mph 81% 0.00 in 346 W/m2
15:16 60.4 °F 54.2 °F 29.67 in WNW 2.0 mph 3.0 mph 80% 0.00 in 287 W/m2
15:22 60.0 °F 53.8 °F 29.68 in WNW 2.0 mph 3.0 mph 80% 0.00 in 281 W/m2
15:28 59.8 °F 54.0 °F 29.68 in NW 2.0 mph 4.0 mph 81% 0.00 in 229 W/m2
15:34 59.6 °F 53.8 °F 29.68 in NNW 3.0 mph 3.0 mph 81% 0.00 in 178 W/m2
15:40 59.5 °F 54.0 °F 29.69 in NW 3.0 mph 3.0 mph 82% 0.00 in 202 W/m2
15:46 59.7 °F 54.2 °F 29.68 in NNW 2.0 mph 4.0 mph 82% 0.00 in 258 W/m2
15:52 59.7 °F 53.5 °F 29.69 in NNW 1.0 mph 3.0 mph 80% 0.00 in 302 W/m2
15:58 59.9 °F 53.7 °F 29.69 in NW 1.0 mph 3.0 mph 80% 0.00 in 221 W/m2
16:04 59.7 °F 53.9 °F 29.69 in NW 2.0 mph 3.0 mph 81% 0.00 in 234 W/m2
16:10 59.6 °F 54.4 °F 29.69 in NW 2.0 mph 2.0 mph 83% 0.00 in 216 W/m2
16:16 59.6 °F 54.4 °F 29.69 in NNW 2.0 mph 2.0 mph 83% 0.00 in 221 W/m2
16:22 59.7 °F 54.2 °F 29.69 in NNW 1.0 mph 2.0 mph 82% 0.00 in 295 W/m2
16:28 59.9 °F 54.4 °F 29.69 in NNW 2.0 mph 2.0 mph 82% 0.00 in 285 W/m2
16:34 59.7 °F 53.9 °F 29.69 in West 2.0 mph 3.0 mph 81% 0.00 in 297 W/m2
16:40 59.5 °F 54.0 °F 29.70 in NW 2.0 mph 2.0 mph 82% 0.00 in 148 W/m2
16:46 59.2 °F 53.7 °F 29.70 in NNW 2.0 mph 5.0 mph 82% 0.00 in 120 W/m2
16:52 59.3 °F 54.1 °F 29.70 in WNW 2.0 mph 2.0 mph 83% 0.00 in 199 W/m2
16:58 59.1 °F 53.6 °F 29.70 in NNW 2.0 mph 6.0 mph 82% 0.00 in 114 W/m2
17:04 58.9 °F 54.1 °F 29.71 in North 2.0 mph 5.0 mph 84% 0.00 in 111 W/m2
17:10 58.8 °F 54.0 °F 29.71 in NNW 1.0 mph 3.0 mph 84% 0.00 in 97 W/m2
17:16 58.4 °F 53.6 °F 29.71 in NNW 2.0 mph 3.0 mph 84% 0.00 in 100 W/m2
17:22 58.2 °F 53.7 °F 29.71 in NW 3.0 mph 6.0 mph 85% 0.00 in 216 W/m2
17:24 58.3 °F 53.8 °F 29.72 in NW 3.0 mph 6.0 mph 85% 0.00 in 225 W/m2
17:30 58.3 °F 53.8 °F 29.72 in NW 3.0 mph 4.0 mph 85% 0.00 in 199 W/m2
17:36 58.5 °F 54.0 °F 29.72 in NW 2.0 mph 4.0 mph 85% 0.00 in 156 W/m2
17:42 58.6 °F 54.1 °F 29.72 in NW 1.0 mph 2.0 mph 85% 0.00 in 135 W/m2
17:48 58.3 °F 53.8 °F 29.72 in NNW 2.0 mph 3.0 mph 85% 0.00 in 120 W/m2
17:56 58.2 °F 53.7 °F 29.72 in NNW 2.0 mph 2.0 mph 85% 0.00 in 62 W/m2
18:02 57.9 °F 53.7 °F 29.72 in North 2.0 mph 3.0 mph 86% 0.00 in 69 W/m2
18:08 57.6 °F 53.8 °F 29.72 in NW 3.0 mph 4.0 mph 87% 0.00 in 67 W/m2
18:14 57.4 °F 53.6 °F 29.73 in NNW 3.0 mph 3.0 mph 87% 0.00 in 76 W/m2
18:20 57.3 °F 53.8 °F 29.73 in NW 2.0 mph 2.0 mph 88% 0.00 in 72 W/m2
18:26 57.2 °F 54.0 °F 29.73 in WNW 1.0 mph 6.0 mph 89% 0.00 in 86 W/m2
18:32 57.1 °F 53.9 °F 29.73 in NW 1.0 mph 3.0 mph 89% 0.00 in 84 W/m2
18:38 57.2 °F 54.0 °F 29.74 in NW 1.0 mph 3.0 mph 89% 0.00 in 77 W/m2
18:44 57.2 °F 54.0 °F 29.74 in North 1.0 mph 1.0 mph 89% 0.00 in 76 W/m2
18:50 57.2 °F 54.0 °F 29.74 in NNE 2.0 mph 2.0 mph 89% 0.00 in 63 W/m2
18:56 57.1 °F 53.9 °F 29.74 in NNW 2.0 mph 2.0 mph 89% 0.00 in 58 W/m2
19:02 57.2 °F 54.0 °F 29.75 in NW 1.0 mph 2.0 mph 89% 0.00 in 49 W/m2
19:08 57.2 °F 54.0 °F 29.75 in NW 1.0 mph 3.0 mph 89% 0.00 in 44 W/m2
19:14 57.2 °F 54.0 °F 29.75 in NW 1.0 mph 1.0 mph 89% 0.00 in 42 W/m2
19:20 57.2 °F 54.0 °F 29.75 in NW 1.0 mph 1.0 mph 89% 0.00 in 49 W/m2
19:26 57.3 °F 54.1 °F 29.75 in NW 1.0 mph 1.0 mph 89% 0.00 in 46 W/m2
19:32 57.3 °F 54.1 °F 29.75 in Calm   2.0 mph 89% 0.00 in 42 W/m2
19:38 57.3 °F 54.1 °F 29.76 in Calm   2.0 mph 89% 0.00 in 37 W/m2
19:44 57.3 °F 54.1 °F 29.76 in Calm   2.0 mph 89% 0.00 in 35 W/m2
19:50 57.3 °F 54.1 °F 29.76 in WNW 1.0 mph 1.0 mph 89% 0.00 in 30 W/m2
19:56 57.2 °F 54.0 °F 29.76 in WNW 1.0 mph 2.0 mph 89% 0.00 in 21 W/m2
20:02 57.2 °F 54.0 °F 29.77 in Calm     89% 0.00 in 19 W/m2
20:08 57.2 °F 54.0 °F 29.77 in Calm   1.0 mph 89% 0.00 in 14 W/m2
20:14 57.2 °F 54.0 °F 29.77 in Calm     89% 0.00 in 11 W/m2
20:19 57.2 °F 54.0 °F 29.77 in Calm     89% 0.00 in 7 W/m2
20:24 57.1 °F 53.9 °F 29.77 in Calm   2.0 mph 89% 0.00 in 5 W/m2
20:30 57.0 °F 53.8 °F 29.77 in Calm     89% 0.00 in 0 W/m2
20:36 57.0 °F 53.8 °F 29.77 in Calm   1.0 mph 89% 0.00 in 0 W/m2
20:42 57.0 °F 53.8 °F 29.78 in Calm     89% 0.00 in 0 W/m2
20:48 56.9 °F 53.7 °F 29.78 in WNW 1.0 mph 2.0 mph 89% 0.00 in 0 W/m2
20:54 56.8 °F 53.9 °F 29.78 in NW 1.0 mph 2.0 mph 90% 0.00 in 0 W/m2
21:00 56.8 °F 53.9 °F 29.78 in NW 1.0 mph 1.0 mph 90% 0.00 in 0 W/m2
21:06 56.8 °F 53.9 °F 29.78 in Calm   1.0 mph 90% 0.00 in 0 W/m2
21:12 56.8 °F 53.9 °F 29.78 in Calm     90% 0.00 in 0 W/m2
21:18 56.8 °F 53.9 °F 29.78 in Calm     90% 0.00 in 0 W/m2
21:24 56.8 °F 53.9 °F 29.79 in Calm     90% 0.00 in 0 W/m2
21:30 56.8 °F 53.9 °F 29.80 in Calm     90% 0.00 in 0 W/m2
21:36 56.8 °F 53.9 °F 29.80 in Calm     90% 0.00 in 0 W/m2
21:42 56.8 °F 53.9 °F 29.80 in Calm     90% 0.00 in 0 W/m2
21:48 56.8 °F 53.9 °F 29.80 in Calm     90% 0.00 in 0 W/m2
21:54 56.8 °F 53.9 °F 29.80 in Calm   1.0 mph 90% 0.00 in 0 W/m2
22:00 56.7 °F 53.8 °F 29.80 in Calm     90% 0.00 in 0 W/m2
22:06 56.6 °F 53.7 °F 29.80 in Calm     90% 0.00 in 0 W/m2
22:12 56.7 °F 54.1 °F 29.81 in Calm     91% 0.00 in 0 W/m2
22:18 56.6 °F 54.0 °F 29.81 in Calm     91% 0.00 in 0 W/m2
22:24 56.6 °F 54.0 °F 29.81 in Calm     91% 0.00 in 0 W/m2
22:30 56.6 °F 54.0 °F 29.81 in Calm     91% 0.00 in 0 W/m2
22:36 56.5 °F 53.9 °F 29.81 in Calm     91% 0.00 in 0 W/m2
22:42 56.5 °F 53.9 °F 29.81 in Calm     91% 0.00 in 0 W/m2
22:48 56.5 °F 53.9 °F 29.81 in Calm     91% 0.00 in 0 W/m2
22:54 56.4 °F 53.8 °F 29.81 in Calm     91% 0.00 in 0 W/m2
23:00 56.4 °F 53.8 °F 29.81 in Calm     91% 0.00 in 0 W/m2
23:06 56.4 °F 54.1 °F 29.81 in Calm     92% 0.00 in 0 W/m2
23:12 56.4 °F 54.1 °F 29.81 in Calm     92% 0.00 in 0 W/m2
23:18 56.4 °F 54.1 °F 29.81 in Calm     92% 0.00 in 0 W/m2
23:24 56.3 °F 54.0 °F 29.81 in Calm     92% 0.00 in 0 W/m2
23:30 56.2 °F 53.9 °F 29.81 in Calm     92% 0.00 in 0 W/m2
23:36 56.2 °F 53.9 °F 29.81 in Calm     92% 0.00 in 0 W/m2
23:42 56.1 °F 53.8 °F 29.81 in Calm     92% 0.00 in 0 W/m2
23:48 56.1 °F 53.8 °F 29.81 in Calm     92% 0.00 in 0 W/m2
23:54 56.1 °F 53.8 °F 29.81 in Calm     92% 0.00 in 0 W/m2
Country Meadow, Clay, NY, USA
Compliments of Weather Underground - 2 mb